Time;durP1;ratioP1;P1;durP2;ratioP2;P2;SDS_P1;SDS_P2;PMS_P1;PMS_P2;Temp;Humidity;BMP_temperature;BMP_pressure;BME280_temperature;BME280_humidity;BME280_pressure;Samples;Min_cycle;Max_cycle;Signal;HPM_P1;HPM_P2
2022/11/14 00:01:39;;;;;;;1.02;0.57;;;;;;;3.24;63.32;99912.97;5076096;28;20052;-69
2022/11/14 00:04:22;;;;;;;0.80;0.60;;;;;;;3.27;63.57;99914.63;5076259;28;20043;-67
2022/11/14 00:07:05;;;;;;;0.50;0.50;;;;;;;3.26;63.67;99905.84;5075648;28;20051;-66
2022/11/14 00:09:48;;;;;;;1.13;0.68;;;;;;;3.08;64.42;99918.84;5075665;28;20107;-68
2022/11/14 00:12:32;;;;;;;0.73;0.60;;;;;;;2.83;65.39;99917.06;5075643;28;20047;-68
2022/11/14 00:15:16;;;;;;;0.80;0.63;;;;;;;2.65;66.08;99911.63;5057116;28;20039;-68
2022/11/14 00:17:58;;;;;;;0.57;0.50;;;;;;;2.56;66.31;99918.06;5075411;28;20556;-66
2022/11/14 00:20:42;;;;;;;0.32;0.32;;;;;;;2.50;66.61;99926.16;5063358;28;20031;-68
2022/11/14 00:23:25;;;;;;;0.68;0.60;;;;;;;2.45;66.05;99928.09;5056255;28;20055;-68
2022/11/14 00:26:08;;;;;;;2.78;0.80;;;;;;;2.32;66.92;99926.78;5075410;28;20039;-69
2022/11/14 00:28:53;;;;;;;0.47;0.47;;;;;;;2.27;67.13;99926.94;5075225;28;20063;-68
2022/11/14 00:31:37;;;;;;;0.88;0.55;;;;;;;2.29;67.62;99924.25;5075458;28;20042;-68
2022/11/14 00:34:20;;;;;;;1.10;0.63;;;;;;;2.27;67.91;99928.69;5063882;28;20040;-69
2022/11/14 00:37:03;;;;;;;0.60;0.60;;;;;;;2.29;67.69;99924.25;5056548;28;20044;-69
2022/11/14 00:39:46;;;;;;;0.90;0.82;;;;;;;2.25;67.45;99920.88;5075380;28;20055;-68
2022/11/14 00:42:30;;;;;;;0.73;0.68;;;;;;;2.23;67.95;99935.00;5057001;28;20039;-69
2022/11/14 00:45:14;;;;;;;0.85;0.85;;;;;;;2.19;67.77;99945.59;5075406;28;20070;-69
2022/11/14 00:47:57;;;;;;;0.82;0.60;;;;;;;2.17;67.45;99951.81;5059846;28;20046;-68
2022/11/14 00:50:40;;;;;;;1.75;0.75;;;;;;;2.13;68.00;99940.56;5075093;28;20431;-66
2022/11/14 00:53:23;;;;;;;0.20;0.20;;;;;;;2.15;67.63;99951.84;5053947;28;20032;-65
2022/11/14 00:56:07;;;;;;;0.80;0.68;;;;;;;2.15;67.68;99956.25;5070443;28;20043;-65
2022/11/14 00:58:50;;;;;;;1.73;0.60;;;;;;;2.15;67.95;99951.00;5075866;28;20042;-70
2022/11/14 01:01:33;;;;;;;0.40;0.30;;;;;;;2.10;68.06;99958.19;5075606;28;20043;-68
2022/11/14 01:04:16;;;;;;;0.80;0.63;;;;;;;2.10;67.82;99961.69;5076716;28;20051;-66
2022/11/14 01:07:00;;;;;;;0.47;0.47;;;;;;;2.12;67.50;99959.88;5061101;28;20040;-64
2022/11/14 01:09:43;;;;;;;6.78;0.95;;;;;;;2.12;67.17;99961.63;5077291;28;20044;-69
2022/11/14 01:12:27;;;;;;;3.63;1.23;;;;;;;2.09;67.32;99961.72;5075952;28;20051;-68
2022/11/14 01:15:11;;;;;;;0.73;0.60;;;;;;;2.09;66.89;99967.00;5077134;28;20039;-69
2022/11/14 01:17:54;;;;;;;2.33;0.45;;;;;;;2.02;67.02;99974.22;5076601;28;20046;-66
2022/11/14 01:20:42;;;;;;;2.08;1.13;;;;;;;1.99;67.05;99969.06;5061024;28;20081;-68
2022/11/14 01:23:26;;;;;;;2.72;0.70;;;;;;;1.97;67.06;99973.50;5060989;28;20486;-66
2022/11/14 01:26:12;;;;;;;0.30;0.30;;;;;;;1.96;66.80;99976.16;5055967;28;20047;-74
2022/11/14 01:28:55;;;;;;;0.43;0.43;;;;;;;1.98;66.78;99990.13;5056363;28;20039;-73
2022/11/14 01:31:39;;;;;;;1.17;0.47;;;;;;;2.05;66.35;99986.38;5053961;28;20047;-73
2022/11/14 01:34:22;;;;;;;0.52;0.45;;;;;;;2.06;66.48;99988.97;5059122;28;20142;-77
2022/11/14 01:37:06;;;;;;;0.75;0.40;;;;;;;2.14;66.53;99996.66;5043445;28;20050;-71
2022/11/14 01:39:49;;;;;;;3.40;0.60;;;;;;;2.18;66.18;99993.00;5025569;28;20046;-69
2022/11/14 01:42:32;;;;;;;0.50;0.50;;;;;;;2.22;65.57;99997.25;5058576;28;20084;-67
2022/11/14 01:45:54;;;;;;;0.32;0.32;;;;;;;2.28;65.70;100007.56;5059734;28;20095;-72
2022/11/14 01:48:49;;;;;;;0.75;0.65;;;;;;;2.26;65.12;100009.38;5049082;28;20486;-68
2022/11/14 01:51:55;;;;;;;;;;;;;;;2.31;65.51;100014.50;5059792;28;20119;-68
2022/11/14 01:54:44;;;;;;;0.38;0.38;;;;;;;2.26;64.78;100008.56;5058453;28;20305;-68
2022/11/14 01:57:33;;;;;;;1.17;0.40;;;;;;;2.19;64.62;100021.00;5058240;28;20165;-74
2022/11/14 02:00:16;;;;;;;0.45;0.22;;;;;;;2.20;64.54;100020.09;5045530;28;20044;-63
2022/11/14 02:03:00;;;;;;;0.70;0.43;;;;;;;2.19;64.94;100021.88;5058874;28;20081;-71
2022/11/14 02:05:46;;;;;;;0.38;0.32;;;;;;;2.17;64.81;100028.09;5057321;28;20040;-65
2022/11/14 02:08:29;;;;;;;5.57;0.55;;;;;;;2.15;64.88;100025.50;5057626;28;20065;-65
2022/11/14 02:11:13;;;;;;;0.52;0.52;;;;;;;2.22;64.74;100039.34;5057386;28;20615;-65
2022/11/14 02:13:57;;;;;;;0.75;0.60;;;;;;;2.15;64.42;100041.28;5056344;28;20592;-65
2022/11/14 02:17:01;;;;;;;0.35;0.35;;;;;;;2.18;64.26;100045.59;5030334;28;20051;-66
2022/11/14 02:19:44;;;;;;;1.65;0.60;;;;;;;2.16;63.93;100047.41;5024865;28;20046;-66
2022/11/14 02:22:27;;;;;;;0.82;0.82;;;;;;;2.14;64.18;100047.44;5062052;28;20075;-65
2022/11/14 02:25:14;;;;;;;0.60;0.45;;;;;;;2.16;63.81;100042.13;5058428;28;20063;-65
2022/11/14 02:27:58;;;;;;;0.32;0.32;;;;;;;2.16;63.42;100055.28;5061593;28;20047;-66
2022/11/14 02:30:41;;;;;;;1.85;1.02;;;;;;;2.23;62.62;100051.59;5058649;28;20035;-67
2022/11/14 02:33:24;;;;;;;5.25;2.38;;;;;;;2.15;62.05;100053.56;5058204;28;20051;-66
2022/11/14 02:36:08;;;;;;;1.45;0.60;;;;;;;2.09;61.88;100059.88;5077215;28;20051;-67
2022/11/14 02:38:51;;;;;;;0.38;0.38;;;;;;;2.03;61.44;100060.06;5058168;28;20043;-65
2022/11/14 02:41:34;;;;;;;3.75;0.73;;;;;;;2.04;58.76;100046.00;5061212;28;20043;-67
2022/11/14 02:44:18;;;;;;;1.92;0.60;;;;;;;1.93;58.76;100057.75;5058347;28;20046;-63
2022/11/14 02:47:01;;;;;;;0.47;0.35;;;;;;;1.79;59.04;100063.44;5073480;28;20036;-71
2022/11/14 02:49:44;;;;;;;3.53;0.93;;;;;;;1.80;59.39;100068.66;5043196;28;20047;-71
2022/11/14 02:52:27;;;;;;;0.32;0.32;;;;;;;1.85;59.29;100065.88;5075143;28;20049;-72
2022/11/14 02:55:10;;;;;;;1.95;0.60;;;;;;;1.83;59.33;100065.91;5077989;28;20159;-74
2022/11/14 02:57:54;;;;;;;1.38;0.70;;;;;;;1.81;58.40;100061.59;5077601;28;20047;-74
2022/11/14 03:00:37;;;;;;;1.08;0.70;;;;;;;1.85;57.93;100073.75;5078627;28;20043;-69
2022/11/14 03:03:20;;;;;;;0.90;0.55;;;;;;;1.73;58.80;100079.38;5078900;28;20428;-69
2022/11/14 03:06:04;;;;;;;2.13;0.95;;;;;;;1.67;59.27;100080.44;5078390;28;20899;-70
2022/11/14 03:08:47;;;;;;;1.63;0.73;;;;;;;1.70;58.28;100079.44;5064844;28;20089;-69
2022/11/14 03:11:31;;;;;;;1.80;0.75;;;;;;;1.67;58.81;100084.81;5062358;28;20050;-70
2022/11/14 03:14:13;;;;;;;1.95;0.68;;;;;;;1.76;57.93;100080.16;5083130;28;20050;-69
2022/11/14 03:16:57;;;;;;;2.05;0.55;;;;;;;1.74;57.87;100081.97;5077631;28;20040;-67
2022/11/14 03:19:40;;;;;;;0.75;0.75;;;;;;;1.68;58.01;100086.53;5077255;28;20122;-67
2022/11/14 03:22:23;;;;;;;2.45;0.75;;;;;;;1.72;57.79;100089.03;5076628;28;20047;-67
2022/11/14 03:25:07;;;;;;;0.50;0.50;;;;;;;1.72;57.54;100080.28;5039368;28;20052;-66
2022/11/14 03:27:50;;;;;;;0.52;0.50;;;;;;;1.68;57.70;100086.53;5036645;28;20044;-67
2022/11/14 03:30:33;;;;;;;0.75;0.60;;;;;;;1.63;58.13;100091.06;5053646;28;20046;-67
2022/11/14 03:33:16;;;;;;;0.77;0.60;;;;;;;1.63;58.18;100086.66;5052854;28;20044;-68
2022/11/14 03:36:00;;;;;;;3.78;1.10;;;;;;;1.67;58.10;100100.59;5053346;28;20098;-67
2022/11/14 03:38:43;;;;;;;1.38;0.77;;;;;;;1.67;57.37;100090.94;5028911;28;20053;-67
2022/11/14 03:41:26;;;;;;;1.95;1.27;;;;;;;1.67;57.26;100093.56;5037676;28;20075;-65
2022/11/14 03:44:09;;;;;;;0.98;0.93;;;;;;;1.61;56.75;100108.63;5036123;28;20080;-68
2022/11/14 03:46:52;;;;;;;0.57;0.47;;;;;;;1.58;57.32;100116.63;5033490;28;20044;-72
2022/11/14 03:49:35;;;;;;;0.88;0.73;;;;;;;1.59;57.43;100102.53;5051185;28;20526;-66
2022/11/14 03:52:18;;;;;;;2.47;1.02;;;;;;;1.58;56.60;100109.56;5053759;28;20040;-66
2022/11/14 03:55:01;;;;;;;0.73;0.73;;;;;;;1.65;56.92;100113.75;5055737;28;20642;-67
2022/11/14 03:57:44;;;;;;;1.73;1.33;;;;;;;1.67;55.50;100117.22;5057685;28;20039;-69
2022/11/14 04:00:27;;;;;;;2.03;1.00;;;;;;;1.59;55.86;100113.06;5060417;28;20391;-69
2022/11/14 04:03:11;;;;;;;2.63;0.93;;;;;;;1.59;55.77;100113.06;5076215;28;20042;-69
2022/11/14 04:05:54;;;;;;;3.60;0.85;;;;;;;1.55;56.07;100125.44;5058810;28;20039;-69
2022/11/14 04:08:39;;;;;;;2.17;0.98;;;;;;;1.54;55.86;100144.72;5076549;28;20035;-70
2022/11/14 04:11:23;;;;;;;1.85;0.90;;;;;;;1.53;56.17;100116.72;5074663;28;20043;-69
2022/11/14 04:14:06;;;;;;;1.80;1.15;;;;;;;1.50;56.11;100124.69;5065043;28;20039;-63
2022/11/14 04:16:49;;;;;;;2.10;1.55;;;;;;;1.52;55.83;100129.91;5075275;28;20089;-62
2022/11/14 04:19:33;;;;;;;3.65;1.60;;;;;;;1.58;55.44;100111.34;5075369;28;20040;-64
2022/11/14 04:22:16;;;;;;;2.72;0.95;;;;;;;1.54;55.67;100128.97;5061768;28;20055;-63
2022/11/14 04:24:59;;;;;;;2.53;0.88;;;;;;;1.48;56.02;100144.88;5075618;28;20039;-63
2022/11/14 04:27:43;;;;;;;1.75;0.95;;;;;;;1.53;55.77;100132.50;5059912;28;20441;-64
2022/11/14 04:30:26;;;;;;;1.30;0.85;;;;;;;1.54;55.85;100141.25;5056888;28;20075;-63
2022/11/14 04:33:10;;;;;;;1.40;1.00;;;;;;;1.54;55.12;100133.34;5074942;28;20027;-63
2022/11/14 04:35:54;;;;;;;1.58;0.95;;;;;;;1.48;55.55;100144.00;5074912;28;20148;-64
2022/11/14 04:38:38;;;;;;;2.28;1.20;;;;;;;1.50;54.90;100143.06;5059294;28;20414;-65
2022/11/14 04:41:22;;;;;;;2.17;1.23;;;;;;;1.46;55.39;100149.34;5074956;28;20128;-65
2022/11/14 04:44:05;;;;;;;2.13;1.13;;;;;;;1.37;55.32;100155.66;5074666;28;20505;-64
2022/11/14 04:46:48;;;;;;;2.55;1.20;;;;;;;1.36;55.53;100148.69;5075066;28;20039;-63
2022/11/14 04:49:31;;;;;;;1.85;1.02;;;;;;;1.33;55.29;100158.44;5075060;28;20035;-63
2022/11/14 04:52:14;;;;;;;2.35;1.13;;;;;;;1.28;56.05;100155.91;5074727;28;20079;-63
2022/11/14 04:54:57;;;;;;;0.63;0.63;;;;;;;1.31;55.46;100153.22;5056581;28;20091;-64
2022/11/14 04:57:40;;;;;;;6.07;1.38;;;;;;;1.32;55.54;100148.81;5074731;28;20047;-65
2022/11/14 05:00:26;;;;;;;1.35;1.02;;;;;;;1.28;56.05;100158.53;5059597;28;20053;-65
2022/11/14 05:03:09;;;;;;;;;;;;;;;1.39;56.36;100168.75;5075264;28;20039;-63
2022/11/14 05:05:52;;;;;;;2.25;1.42;;;;;;;1.29;55.96;100175.16;5074985;28;19915;-63
2022/11/14 05:08:35;;;;;;;3.08;1.35;;;;;;;1.26;55.78;100172.59;5042704;28;20561;-67
2022/11/14 05:11:19;;;;;;;4.15;1.63;;;;;;;1.20;56.67;100178.03;5078850;28;20047;-64
2022/11/14 05:14:02;;;;;;;2.60;1.40;;;;;;;1.16;56.55;100184.25;5078998;28;20040;-62
2022/11/14 05:16:45;;;;;;;1.90;1.25;;;;;;;1.18;56.60;100200.81;5061328;28;20043;-64
2022/11/14 05:19:28;;;;;;;1.00;0.85;;;;;;;1.18;56.26;100195.56;5079156;28;20503;-67
2022/11/14 05:22:12;;;;;;;1.23;1.00;;;;;;;1.20;55.99;100193.78;5064556;28;20403;-68
2022/11/14 05:24:56;;;;;;;2.38;1.17;;;;;;;1.12;56.37;100211.50;5060328;28;20051;-66
2022/11/14 05:27:39;;;;;;;3.45;1.20;;;;;;;1.13;56.10;100198.28;5079003;28;20035;-63
2022/11/14 05:30:22;;;;;;;9.20;1.58;;;;;;;1.16;56.69;100200.84;5078547;28;20043;-64
2022/11/14 05:33:05;;;;;;;2.38;1.58;;;;;;;1.24;55.99;100212.03;5061940;28;20055;-62
2022/11/14 05:35:48;;;;;;;2.50;1.05;;;;;;;1.25;55.71;100218.16;5064659;28;20050;-63
2022/11/14 05:38:32;;;;;;;1.20;1.10;;;;;;;1.23;55.86;100219.97;5059990;28;20494;-63
2022/11/14 05:41:18;;;;;;;2.67;1.43;;;;;;;1.19;56.08;100229.69;5078514;28;20047;-67
2022/11/14 05:44:05;;;;;;;1.85;1.52;;;;;;;1.25;55.83;100226.88;5078420;28;20656;-67
2022/11/14 05:46:48;;;;;;;3.20;1.50;;;;;;;1.37;55.96;100225.72;5059923;28;20035;-67
2022/11/14 05:49:31;;;;;;;2.80;1.67;;;;;;;1.52;55.29;100243.75;5078226;28;20406;-66
2022/11/14 05:52:15;;;;;;;11.18;1.90;;;;;;;1.75;55.45;100243.16;5078160;28;20498;-68
2022/11/14 05:54:58;;;;;;;3.70;1.55;;;;;;;2.08;54.53;100244.88;5079249;28;20513;-67
2022/11/14 05:57:41;;;;;;;3.80;1.73;;;;;;;2.28;54.33;100249.59;5078102;28;20405;-70
2022/11/14 06:00:26;;;;;;;1.98;0.98;;;;;;;2.40;53.65;100249.25;5078058;28;20638;-66
2022/11/14 06:03:09;;;;;;;5.72;1.83;;;;;;;2.31;53.08;100251.28;5077902;28;20122;-67
2022/11/14 06:05:52;;;;;;;6.88;1.85;;;;;;;2.12;53.45;100261.47;5062602;28;20047;-62
2022/11/14 06:08:36;;;;;;;3.20;2.20;;;;;;;1.89;53.67;100263.84;5063672;28;20077;-63
2022/11/14 06:11:20;;;;;;;2.45;1.88;;;;;;;1.72;54.49;100267.75;5077875;28;20100;-68
2022/11/14 06:14:03;;;;;;;2.30;1.45;;;;;;;1.61;54.57;100268.91;5059524;28;20047;-68
2022/11/14 06:16:47;;;;;;;6.00;1.90;;;;;;;1.52;54.79;100277.91;5062166;28;20452;-68
2022/11/14 06:19:30;;;;;;;3.15;2.00;;;;;;;1.51;54.94;100281.44;5062125;28;20080;-69
2022/11/14 06:22:13;;;;;;;2.35;1.60;;;;;;;1.47;54.88;100287.66;5060268;28;20422;-69
2022/11/14 06:24:56;;;;;;;4.70;2.50;;;;;;;1.41;54.33;100295.69;5061865;28;20046;-69
2022/11/14 06:27:39;;;;;;;10.55;2.67;;;;;;;1.24;54.69;100277.69;5065391;28;20035;-70
2022/11/14 06:30:22;;;;;;;5.68;2.28;;;;;;;1.15;54.95;100295.41;5065143;28;20559;-69
2022/11/14 06:33:05;;;;;;;7.93;2.70;;;;;;;1.12;54.75;100312.13;5083544;28;20075;-70
2022/11/14 06:35:48;;;;;;;8.10;3.13;;;;;;;1.07;54.13;100309.59;5082658;28;20047;-69
2022/11/14 06:38:34;;;;;;;8.77;3.83;;;;;;;0.98;54.86;100316.81;5064815;28;20036;-69
2022/11/14 06:41:20;;;;;;;6.72;3.55;;;;;;;0.90;54.68;100311.75;5081863;28;20079;-71
2022/11/14 06:44:07;;;;;;;12.77;2.58;;;;;;;0.87;55.22;100306.56;5080878;28;20123;-67
2022/11/14 06:46:50;;;;;;;4.97;2.20;;;;;;;0.87;54.93;100319.69;5059598;28;20054;-68
2022/11/14 06:49:33;;;;;;;13.82;3.03;;;;;;;0.88;54.98;100324.03;5078863;28;20132;-67
2022/11/14 06:52:16;;;;;;;7.53;2.88;;;;;;;0.91;54.93;100316.06;5063225;28;20043;-68
2022/11/14 06:55:00;;;;;;;7.13;1.98;;;;;;;0.89;54.67;100320.50;5067739;28;20043;-68
2022/11/14 06:57:43;;;;;;;4.05;2.17;;;;;;;0.85;55.06;100329.34;5060871;28;20043;-69
2022/11/14 07:00:26;;;;;;;7.00;2.60;;;;;;;0.88;54.81;100320.53;5079411;28;20065;-68
2022/11/14 07:03:10;;;;;;;7.20;3.72;;;;;;;0.91;54.61;100323.94;5079316;28;20050;-67
2022/11/14 07:05:57;;;;;;;2.33;1.40;;;;;;;0.99;55.28;100334.31;5080094;28;20414;-68
2022/11/14 07:08:40;;;;;;;5.10;1.98;;;;;;;1.07;54.77;100325.34;5065381;28;20039;-68
2022/11/14 07:11:27;;;;;;;6.63;1.90;;;;;;;1.17;54.35;100339.13;5076834;28;20051;-67
2022/11/14 07:14:10;;;;;;;7.03;3.13;;;;;;;1.28;53.95;100339.75;5076289;28;20051;-68
2022/11/14 07:16:54;;;;;;;8.77;3.15;;;;;;;1.44;53.63;100330.66;5077501;28;20061;-69
2022/11/14 07:19:37;;;;;;;3.80;2.10;;;;;;;1.55;52.62;100340.91;5059622;28;20055;-68
2022/11/14 07:22:20;;;;;;;6.75;3.28;;;;;;;1.59;52.91;100347.78;5065078;28;20051;-67
2022/11/14 07:25:04;;;;;;;6.18;2.35;;;;;;;1.69;53.01;100345.84;5078667;28;20043;-66
2022/11/14 07:27:48;;;;;;;3.92;2.03;;;;;;;1.78;52.31;100354.34;5079734;28;20043;-67
2022/11/14 07:30:32;;;;;;;6.88;2.05;;;;;;;1.91;52.04;100361.94;5078664;28;20039;-68
2022/11/14 07:33:15;;;;;;;5.43;1.98;;;;;;;1.93;51.74;100357.47;5077146;28;20134;-67
2022/11/14 07:35:58;;;;;;;10.48;2.50;;;;;;;1.96;52.06;100360.91;5077069;28;20460;-68
2022/11/14 07:38:42;;;;;;;5.45;2.90;;;;;;;2.03;51.40;100359.00;5090422;28;20032;-67
2022/11/14 07:41:25;;;;;;;2.92;2.05;;;;;;;2.51;51.30;100370.84;5095626;28;20055;-67
2022/11/14 07:44:09;;;;;;;6.17;2.67;;;;;;;4.69;47.77;100363.97;5082210;28;20027;-67
2022/11/14 07:46:52;;;;;;;4.13;1.50;;;;;;;7.32;41.85;100353.03;5076748;28;20104;-69
2022/11/14 07:49:36;;;;;;;4.90;1.95;;;;;;;9.63;37.59;100348.16;5047033;28;20043;-70
2022/11/14 07:52:19;;;;;;;4.93;2.42;;;;;;;11.22;35.54;100354.59;5076413;28;20383;-68
2022/11/14 07:55:02;;;;;;;3.67;1.85;;;;;;;12.40;32.08;100355.81;5078350;28;20043;-69
2022/11/14 07:57:46;;;;;;;4.65;1.85;;;;;;;13.55;30.83;100357.50;5077509;28;20044;-70
2022/11/14 08:00:29;;;;;;;6.90;2.42;;;;;;;14.02;29.46;100361.22;5076478;28;20043;-64
2022/11/14 08:03:13;;;;;;;6.03;1.98;;;;;;;14.37;29.05;100354.06;5075504;28;20043;-63
2022/11/14 08:06:11;;;;;;;8.55;2.78;;;;;;;15.37;30.04;100358.78;5076189;28;20043;-64
2022/11/14 08:08:55;;;;;;;7.60;3.08;;;;;;;15.66;27.21;100361.84;5075820;28;20126;-64
2022/11/14 08:11:47;;;;;;;5.97;2.30;;;;;;;15.91;26.54;100352.66;5075855;28;20498;-64
2022/11/14 08:14:31;;;;;;;5.53;2.55;;;;;;;16.41;25.76;100344.88;5075560;28;20042;-62
2022/11/14 08:17:14;;;;;;;11.20;2.92;;;;;;;16.77;24.41;100357.06;5062619;28;20108;-65
2022/11/14 08:19:57;;;;;;;12.50;3.20;;;;;;;16.91;24.45;100345.97;5060251;28;20051;-65
2022/11/14 08:22:40;;;;;;;5.13;2.90;;;;;;;17.19;23.98;100353.34;5050305;28;20048;-65
2022/11/14 08:25:23;;;;;;;6.85;2.60;;;;;;;17.55;23.97;100357.31;5074211;28;20043;-62
2022/11/14 08:28:07;;;;;;;4.60;2.70;;;;;;;17.50;23.01;100359.56;5060066;28;20092;-63
2022/11/14 08:30:51;;;;;;;7.55;2.20;;;;;;;16.67;23.79;100367.78;5062990;28;20058;-64
2022/11/14 08:33:35;;;;;;;5.45;2.28;;;;;;;15.31;24.85;100371.88;5075147;28;20036;-64
2022/11/14 08:36:18;;;;;;;10.75;2.97;;;;;;;14.69;26.12;100373.09;5075387;28;20075;-63
2022/11/14 08:39:01;;;;;;;8.32;2.67;;;;;;;14.55;26.03;100365.28;5070391;28;20032;-63
2022/11/14 08:41:45;;;;;;;7.32;2.30;;;;;;;14.80;25.80;100367.75;5068615;28;20067;-63
2022/11/14 08:44:28;;;;;;;5.07;2.58;;;;;;;15.37;25.66;100356.09;5061648;28;20035;-63
2022/11/14 08:47:12;;;;;;;10.90;4.20;;;;;;;15.29;24.74;100358.53;5074713;28;20505;-64
2022/11/14 08:49:55;;;;;;;10.80;4.53;;;;;;;15.06;25.19;100360.38;5043223;28;20448;-63
2022/11/14 08:52:38;;;;;;;7.28;2.67;;;;;;;15.20;24.84;100361.97;5074766;28;20139;-63
2022/11/14 08:55:21;;;;;;;6.22;2.95;;;;;;;15.28;25.20;100359.53;5074880;28;20039;-64
2022/11/14 08:58:05;;;;;;;7.72;3.00;;;;;;;14.59;25.60;100369.41;5074731;28;20371;-63
2022/11/14 09:00:50;;;;;;;13.52;3.15;;;;;;;13.90;26.14;100365.66;5057246;28;20917;-63
2022/11/14 09:03:33;;;;;;;6.13;2.55;;;;;;;13.72;26.49;100365.19;5056674;28;20130;-64
2022/11/14 09:06:17;;;;;;;7.78;3.42;;;;;;;14.25;26.07;100364.88;5059459;28;20043;-63
2022/11/14 09:09:00;;;;;;;6.63;2.40;;;;;;;14.64;26.18;100364.56;5074909;28;20482;-64
2022/11/14 09:11:43;;;;;;;8.30;3.08;;;;;;;14.45;25.56;100366.91;5075098;28;20061;-63
2022/11/14 09:14:27;;;;;;;6.75;2.55;;;;;;;14.22;25.78;100365.94;5074846;28;20043;-64
2022/11/14 09:17:10;;;;;;;6.20;2.92;;;;;;;14.77;25.38;100369.84;5060983;28;20039;-64
2022/11/14 09:19:53;;;;;;;9.73;3.15;;;;;;;15.73;24.08;100372.97;5059136;28;20050;-64
2022/11/14 09:22:36;;;;;;;4.65;2.20;;;;;;;16.29;23.79;100358.38;5074313;28;20470;-64
2022/11/14 09:25:20;;;;;;;8.07;3.08;;;;;;;16.15;23.50;100358.66;5074694;28;20050;-65
2022/11/14 09:28:05;;;;;;;13.98;3.22;;;;;;;15.34;24.70;100372.47;5074916;28;20114;-64
2022/11/14 09:30:49;;;;;;;;;;;;;;;15.48;27.91;100366.84;5059687;28;20055;-64
2022/11/14 09:33:33;;;;;;;2.95;2.13;;;;;;;14.88;24.93;100377.94;5074710;28;19923;-63
2022/11/14 09:36:17;;;;;;;5.57;2.67;;;;;;;14.45;25.38;100364.25;5074839;28;20490;-64
2022/11/14 09:39:00;;;;;;;3.88;2.42;;;;;;;14.07;25.90;100381.38;5074745;28;20044;-68
2022/11/14 09:42:02;;;;;;;8.10;3.10;;;;;;;14.37;27.18;100363.94;5074696;28;20826;-69
2022/11/14 09:45:02;;;;;;;7.03;4.10;;;;;;;15.14;26.13;100368.66;5059222;28;20123;-70
2022/11/14 09:47:54;;;;;;;6.13;2.95;;;;;;;16.01;25.03;100364.34;5057139;28;20051;-71
2022/11/14 09:50:47;;;;;;;5.70;2.97;;;;;;;16.28;24.40;100370.13;5076118;28;20039;-68
2022/11/14 09:53:52;;;;;;;7.97;3.00;;;;;;;16.46;24.71;100366.88;5063591;28;20394;-71
2022/11/14 09:56:35;;;;;;;;;;;;;;;16.77;26.38;100376.78;5079214;27;20035;-69
2022/11/14 09:59:19;;;;;;;6.30;2.95;;;;;;;15.70;24.11;100365.13;5057737;28;19922;-70
2022/11/14 10:02:19;;;;;;;8.90;2.42;;;;;;;14.88;26.21;100373.41;5078677;28;20039;-69
2022/11/14 10:05:21;;;;;;;6.57;2.95;;;;;;;13.68;27.45;100368.19;5078042;28;20048;-70
2022/11/14 10:08:35;;;;;;;6.10;2.60;;;;;;;12.65;28.39;100366.53;5062349;28;20229;-69
2022/11/14 10:11:28;;;;;;;6.18;3.22;;;;;;;12.25;29.00;100363.03;5076358;28;20429;-69
2022/11/14 10:14:35;;;;;;;5.35;2.45;;;;;;;11.05;30.17;100360.16;5077722;28;20043;-69
2022/11/14 10:18:02;;;;;;;13.07;3.33;;;;;;;9.48;32.10;100369.34;5065351;28;20043;-71
2022/11/14 10:20:53;;;;;;;3.08;2.00;;;;;;;7.98;33.95;100367.50;5059499;28;20036;-68
2022/11/14 10:23:59;;;;;;;11.68;2.42;;;;;;;7.08;36.09;100375.38;5077203;28;20054;-69
2022/11/14 10:27:04;;;;;;;10.38;3.78;;;;;;;6.30;36.74;100367.34;5066303;28;20112;-68
2022/11/14 10:30:08;;;;;;;7.63;3.00;;;;;;;5.90;37.85;100374.28;5076720;28;20088;-67
2022/11/14 10:33:34;;;;;;;10.35;2.80;;;;;;;5.47;38.64;100361.88;5077635;28;20150;-66
2022/11/14 10:36:17;;;;;;;10.35;2.05;;;;;;;5.04;39.36;100363.53;4975366;28;20034;-66
2022/11/14 10:39:14;;;;;;;7.32;1.90;;;;;;;4.86;39.53;100369.47;4975554;28;20049;-68
2022/11/14 10:42:07;;;;;;;8.00;2.42;;;;;;;4.66;40.73;100366.69;4975731;28;20792;-68
2022/11/14 10:45:01;;;;;;;5.30;2.30;;;;;;;4.55;41.12;100367.09;4975090;28;20049;-67
2022/11/14 10:48:01;;;;;;;10.85;2.67;;;;;;;4.51;41.15;100362.84;4975081;28;20080;-68
2022/11/14 10:50:56;;;;;;;11.55;2.90;;;;;;;4.52;41.78;100361.91;4975164;28;20054;-65
2022/11/14 10:53:58;;;;;;;7.00;2.60;;;;;;;4.55;41.44;100356.53;4964208;28;20050;-72
2022/11/14 10:56:52;;;;;;;5.65;1.92;;;;;;;4.79;40.80;100367.13;4961963;28;20049;-67
2022/11/14 10:59:36;;;;;;;6.95;3.00;;;;;;;4.65;40.40;100357.91;4961789;28;20089;-68
2022/11/14 11:02:19;;;;;;;7.55;2.60;;;;;;;4.70;40.69;100363.06;4974866;28;20077;-67
2022/11/14 11:05:13;;;;;;;9.85;3.92;;;;;;;4.77;40.55;100361.03;4961312;28;20101;-66
2022/11/14 11:14:03;;;;;;;5.30;2.33;;;;;;;4.09;42.76;100359.88;5076779;28;20050;-67
2022/11/14 11:16:47;;;;;;;7.30;2.47;;;;;;;3.94;43.03;100363.91;5060910;28;20051;-65
2022/11/14 11:19:30;;;;;;;4.93;2.10;;;;;;;3.85;43.21;100355.41;5061356;28;20122;-68
2022/11/14 11:22:37;;;;;;;7.53;2.75;;;;;;;3.90;43.27;100358.78;5041177;28;20531;-68
2022/11/14 11:25:28;;;;;;;6.47;2.50;;;;;;;4.05;43.40;100365.34;5074592;28;20043;-69
2022/11/14 11:28:15;;;;;;;8.38;2.40;;;;;;;4.13;43.63;100360.66;5076261;28;20083;-68
2022/11/14 11:31:04;;;;;;;8.57;2.55;;;;;;;4.12;43.08;100362.44;5064566;28;20398;-67
2022/11/14 11:33:47;;;;;;;7.88;3.00;;;;;;;4.02;43.27;100358.38;5057811;28;20035;-68
2022/11/14 11:36:37;;;;;;;12.02;3.28;;;;;;;3.96;43.75;100367.34;5075540;28;20075;-70
2022/11/14 11:39:25;;;;;;;9.07;2.90;;;;;;;3.89;43.60;100364.97;5075973;28;20035;-69
2022/11/14 11:42:22;;;;;;;11.23;3.42;;;;;;;3.67;44.44;100375.34;5075743;28;20036;-73
2022/11/14 11:45:16;;;;;;;7.72;3.08;;;;;;;3.57;44.35;100368.66;5060034;28;20127;-64
2022/11/14 11:48:18;;;;;;;5.97;2.58;;;;;;;3.44;44.43;100364.66;5071721;28;20035;-70
2022/11/14 11:51:03;;;;;;;5.60;3.55;;;;;;;3.27;44.54;100373.09;5062116;28;20054;-72
2022/11/14 11:53:57;;;;;;;5.10;2.83;;;;;;;3.20;45.06;100369.75;5067651;28;20043;-70
2022/11/14 11:56:43;;;;;;;5.35;2.30;;;;;;;3.05;45.19;100364.94;5054260;28;20036;-67
2022/11/14 11:59:40;;;;;;;4.50;2.47;;;;;;;2.98;45.14;100370.44;5056558;28;20043;-65
2022/11/14 12:02:25;;;;;;;5.53;2.10;;;;;;;2.88;45.34;100368.06;5056920;28;20802;-67
2022/11/14 12:05:13;;;;;;;;;;;;;;;2.96;45.11;100369.63;5052833;28;20039;-65
2022/11/14 12:08:12;;;;;;;6.22;2.28;;;;;;;2.78;45.18;100373.66;5055886;28;19971;-67
2022/11/14 12:10:57;;;;;;;4.35;2.03;;;;;;;2.57;45.94;100369.84;5056078;28;20109;-64
2022/11/14 12:13:51;;;;;;;4.53;2.72;;;;;;;2.47;45.81;100373.63;5056563;28;20040;-65
2022/11/14 12:17:08;;;;;;;8.68;2.15;;;;;;;2.38;45.93;100374.72;5063052;28;20040;-65
2022/11/14 12:20:39;;;;;;;5.25;2.35;;;;;;;2.32;46.56;100366.13;5050423;28;20044;-66
2022/11/14 12:23:41;;;;;;;4.93;1.88;;;;;;;2.24;46.47;100376.88;5029275;28;20044;-65
2022/11/14 12:26:24;;;;;;;6.40;3.00;;;;;;;2.12;46.96;100377.19;5012135;28;20135;-67
2022/11/14 12:29:13;;;;;;;14.85;2.78;;;;;;;1.94;47.52;100375.00;5013594;28;20043;-67
2022/11/14 12:32:05;;;;;;;3.58;1.92;;;;;;;1.97;47.65;100378.41;5012576;28;20866;-67
2022/11/14 12:34:49;;;;;;;7.43;2.38;;;;;;;1.99;47.63;100367.88;5031263;28;20048;-65
2022/11/14 12:37:37;;;;;;;4.88;2.40;;;;;;;2.05;47.50;100367.69;5032773;28;20534;-64
2022/11/14 12:40:28;;;;;;;3.83;2.42;;;;;;;1.95;48.22;100366.19;5020107;28;20056;-63
2022/11/14 12:43:35;;;;;;;4.32;2.05;;;;;;;1.94;48.04;100373.22;5013919;28;20064;-70
2022/11/14 12:46:18;;;;;;;6.53;2.03;;;;;;;1.76;48.46;100374.56;5034361;28;20051;-73
2022/11/14 12:49:36;;;;;;;6.95;2.38;;;;;;;1.76;48.81;100369.28;5033650;28;20525;-70
2022/11/14 12:52:42;;;;;;;14.15;2.83;;;;;;;1.78;48.87;100369.25;5019728;28;20495;-68
2022/11/14 12:55:26;;;;;;;4.88;1.88;;;;;;;1.70;49.02;100366.78;5032468;28;20051;-68
2022/11/14 12:58:46;;;;;;;5.15;2.75;;;;;;;1.73;48.72;100374.63;5074962;28;20117;-70
2022/11/14 13:01:39;;;;;;;8.82;2.90;;;;;;;1.66;49.00;100377.44;5074845;28;20062;-70
2022/11/14 13:05:00;;;;;;;7.00;2.88;;;;;;;1.66;48.71;100372.19;5063588;28;20474;-68
2022/11/14 13:07:43;;;;;;;5.70;2.88;;;;;;;1.59;48.95;100381.09;5071902;28;20079;-69
2022/11/14 13:10:30;;;;;;;3.90;2.17;;;;;;;1.56;48.95;100371.53;5056383;28;20490;-69
2022/11/14 13:22:38;;;;;;;3.92;1.92;;;;;;;1.43;49.27;100370.09;5074834;28;20044;-68